createdAt,value
2023-04-08T00:00:24.880Z,558.00
2023-04-08T00:01:24.907Z,558.00
2023-04-08T00:02:25.028Z,558.00
2023-04-08T00:03:25.047Z,551.00
2023-04-08T00:04:25.048Z,549.00
2023-04-08T00:05:24.945Z,544.00
2023-04-08T00:06:24.973Z,539.00
2023-04-08T00:07:24.986Z,540.00
2023-04-08T00:08:24.992Z,547.00
2023-04-08T00:09:25.042Z,542.00
2023-04-08T00:10:25.049Z,546.00
2023-04-08T00:11:25.063Z,542.00
2023-04-08T00:12:25.084Z,542.00
2023-04-08T00:13:25.057Z,543.00
2023-04-08T00:14:25.069Z,547.00
2023-04-08T00:15:25.115Z,544.00
2023-04-08T00:16:25.169Z,541.00
2023-04-08T00:17:25.189Z,542.00
2023-04-08T00:18:25.127Z,548.00
2023-04-08T00:19:25.164Z,539.00
2023-04-08T00:20:25.189Z,539.00
2023-04-08T00:21:25.221Z,541.00
2023-04-08T00:22:25.237Z,541.00
2023-04-08T00:23:25.252Z,545.00
2023-04-08T00:24:25.280Z,545.00
2023-04-08T00:25:25.718Z,546.00
2023-04-08T00:26:25.313Z,542.00
2023-04-08T00:27:25.334Z,547.00
2023-04-08T00:28:25.383Z,543.00
2023-04-08T00:29:25.373Z,543.00
2023-04-08T00:30:25.376Z,545.00
2023-04-08T00:31:25.474Z,544.00
2023-04-08T00:32:25.448Z,539.00
2023-04-08T00:33:25.473Z,539.00
2023-04-08T00:34:25.482Z,545.00
2023-04-08T00:35:25.550Z,551.00
2023-04-08T00:36:25.497Z,543.00
2023-04-08T00:37:25.563Z,545.00
2023-04-08T00:38:25.535Z,549.00
2023-04-08T00:39:25.583Z,553.00
2023-04-08T00:40:25.616Z,558.00
2023-04-08T00:41:25.614Z,556.00
2023-04-08T00:42:25.661Z,560.00
2023-04-08T00:43:25.663Z,558.00
2023-04-08T00:44:25.662Z,560.00
2023-04-08T00:45:25.693Z,553.00
2023-04-08T00:46:25.723Z,558.00
2023-04-08T00:47:25.761Z,555.00
2023-04-08T00:48:25.728Z,557.00
2023-04-08T00:49:25.743Z,556.00
2023-04-08T00:50:25.761Z,557.00
2023-04-08T00:51:25.757Z,561.00
2023-04-08T00:52:25.802Z,561.00
2023-04-08T00:53:25.916Z,558.00
2023-04-08T00:54:25.862Z,557.00
2023-04-08T00:55:25.833Z,567.00
2023-04-08T00:56:25.873Z,562.00
2023-04-08T00:57:25.903Z,564.00
2023-04-08T00:58:25.900Z,564.00
2023-04-08T00:59:25.904Z,569.00
2023-04-08T01:00:26.478Z,565.00
2023-04-08T01:01:25.987Z,564.00
2023-04-08T01:02:26.310Z,564.00
2023-04-08T01:03:26.096Z,565.00
2023-04-08T01:04:26.080Z,567.00
2023-04-08T01:05:26.032Z,570.00
2023-04-08T01:06:26.031Z,572.00
2023-04-08T01:07:26.058Z,569.00
2023-04-08T01:08:26.086Z,565.00
2023-04-08T01:09:26.103Z,562.00
2023-04-08T01:10:26.122Z,564.00
2023-04-08T01:11:26.143Z,570.00
2023-04-08T01:12:26.175Z,570.00
2023-04-08T01:13:26.169Z,569.00
2023-04-08T01:14:26.214Z,564.00
2023-04-08T01:15:26.224Z,565.00
2023-04-08T01:16:26.297Z,569.00
2023-04-08T01:17:26.322Z,568.00
2023-04-08T01:18:26.280Z,568.00
2023-04-08T01:19:26.266Z,570.00
2023-04-08T01:20:26.344Z,566.00
2023-04-08T01:21:26.343Z,567.00
2023-04-08T01:22:26.347Z,566.00
2023-04-08T01:23:26.320Z,570.00
2023-04-08T01:24:26.339Z,568.00
2023-04-08T01:25:26.339Z,573.00
2023-04-08T01:26:26.372Z,572.00
2023-04-08T01:27:26.428Z,573.00
2023-04-08T01:28:26.412Z,572.00
2023-04-08T01:29:26.459Z,574.00
2023-04-08T01:30:26.457Z,580.00
2023-04-08T01:31:26.508Z,575.00
2023-04-08T01:32:26.520Z,574.00
2023-04-08T01:33:26.526Z,577.00
2023-04-08T01:34:26.522Z,576.00
2023-04-08T01:35:26.593Z,577.00
2023-04-08T01:36:26.531Z,574.00
2023-04-08T01:37:26.574Z,578.00
2023-04-08T01:38:26.602Z,577.00
2023-04-08T01:39:26.592Z,579.00
2023-04-08T01:40:26.582Z,581.00
2023-04-08T01:41:26.605Z,579.00
2023-04-08T01:42:26.633Z,579.00
2023-04-08T01:43:26.655Z,580.00
2023-04-08T01:44:26.671Z,583.00
2023-04-08T01:45:26.675Z,584.00
2023-04-08T01:46:26.728Z,579.00
2023-04-08T01:47:26.755Z,586.00
2023-04-08T01:48:26.725Z,582.00
2023-04-08T01:49:26.721Z,580.00
2023-04-08T01:50:26.751Z,583.00
2023-04-08T01:51:26.749Z,587.00
2023-04-08T01:52:26.775Z,585.00
2023-04-08T01:53:26.771Z,585.00
2023-04-08T01:54:26.796Z,590.00
2023-04-08T01:55:26.800Z,586.00
2023-04-08T01:56:26.783Z,583.00
2023-04-08T01:57:26.797Z,581.00
2023-04-08T01:58:26.851Z,584.00
2023-04-08T01:59:27.412Z,584.00
2023-04-08T02:00:26.835Z,585.00
2023-04-08T02:01:26.874Z,581.00
2023-04-08T02:02:26.962Z,582.00
2023-04-08T02:03:27.117Z,585.00
2023-04-08T02:04:27.061Z,585.00
2023-04-08T02:05:26.933Z,585.00
2023-04-08T02:06:26.946Z,585.00
2023-04-08T02:07:27.022Z,584.00
2023-04-08T02:08:26.987Z,589.00
2023-04-08T02:09:26.995Z,588.00
2023-04-08T02:10:26.996Z,585.00
2023-04-08T02:11:27.024Z,589.00
2023-04-08T02:12:27.091Z,584.00
2023-04-08T02:13:27.077Z,586.00
2023-04-08T02:14:27.090Z,587.00
2023-04-08T02:15:27.098Z,586.00
2023-04-08T02:16:27.140Z,584.00
2023-04-08T02:17:27.168Z,587.00
2023-04-08T02:18:27.114Z,588.00
2023-04-08T02:19:27.114Z,587.00
2023-04-08T02:20:27.165Z,589.00
2023-04-08T02:21:27.140Z,585.00
2023-04-08T02:22:27.188Z,583.00
2023-04-08T02:23:27.169Z,588.00
2023-04-08T02:24:27.198Z,589.00
2023-04-08T02:25:27.205Z,588.00
2023-04-08T02:26:27.233Z,588.00
2023-04-08T02:27:27.241Z,586.00
2023-04-08T02:28:27.254Z,587.00
2023-04-08T02:29:27.253Z,585.00
2023-04-08T02:30:27.234Z,586.00
2023-04-08T02:31:27.329Z,586.00
2023-04-08T02:32:27.328Z,587.00
2023-04-08T02:33:27.301Z,589.00
2023-04-08T02:34:27.291Z,591.00
2023-04-08T02:35:27.356Z,589.00
2023-04-08T02:36:27.350Z,589.00
2023-04-08T02:37:27.353Z,589.00
2023-04-08T02:38:27.377Z,589.00
2023-04-08T02:39:27.378Z,585.00
2023-04-08T02:40:27.439Z,586.00
2023-04-08T02:41:27.416Z,585.00
2023-04-08T02:42:27.426Z,585.00
2023-04-08T02:43:27.422Z,587.00
2023-04-08T02:44:27.428Z,582.00
2023-04-08T02:45:27.472Z,588.00
2023-04-08T02:46:27.433Z,584.00
2023-04-08T02:47:27.451Z,587.00
2023-04-08T02:48:27.448Z,587.00
2023-04-08T02:49:27.484Z,583.00
2023-04-08T02:50:27.510Z,583.00
2023-04-08T02:51:27.519Z,587.00
2023-04-08T02:52:27.570Z,585.00
2023-04-08T02:53:27.533Z,583.00
2023-04-08T02:54:27.554Z,589.00
2023-04-08T02:55:27.591Z,582.00
2023-04-08T02:56:27.601Z,585.00
2023-04-08T02:57:27.645Z,585.00
2023-04-08T02:58:27.693Z,583.00
2023-04-08T02:59:27.663Z,585.00
2023-04-08T03:00:27.668Z,586.00
2023-04-08T03:01:27.747Z,586.00
2023-04-08T03:02:27.821Z,584.00
2023-04-08T03:03:27.897Z,588.00
2023-04-08T03:04:27.750Z,584.00
2023-04-08T03:05:27.765Z,584.00
2023-04-08T03:06:27.796Z,588.00
2023-04-08T03:07:27.780Z,588.00
2023-04-08T03:08:27.810Z,588.00
2023-04-08T03:09:27.841Z,583.00
2023-04-08T03:10:27.846Z,578.00
2023-04-08T03:11:27.867Z,587.00
2023-04-08T03:12:27.914Z,591.00
2023-04-08T03:13:27.923Z,590.00
2023-04-08T03:14:27.942Z,593.00
2023-04-08T03:15:27.917Z,591.00
2023-04-08T03:16:27.992Z,588.00
2023-04-08T03:17:28.029Z,587.00
2023-04-08T03:18:28.017Z,584.00
2023-04-08T03:19:27.998Z,589.00
2023-04-08T03:20:28.027Z,589.00
2023-04-08T03:21:28.055Z,588.00
2023-04-08T03:22:28.074Z,585.00
2023-04-08T03:23:28.100Z,587.00
2023-04-08T03:24:28.100Z,586.00
2023-04-08T03:25:28.122Z,591.00
2023-04-08T03:26:28.135Z,586.00
2023-04-08T03:27:28.206Z,583.00
2023-04-08T03:28:28.183Z,594.00
2023-04-08T03:29:28.195Z,589.00
2023-04-08T03:30:28.236Z,588.00
2023-04-08T03:31:28.233Z,584.00
2023-04-08T03:32:28.306Z,592.00
2023-04-08T03:33:28.242Z,587.00
2023-04-08T03:34:28.258Z,585.00
2023-04-08T03:35:28.303Z,592.00
2023-04-08T03:36:28.279Z,595.00
2023-04-08T03:37:28.306Z,592.00
2023-04-08T03:38:28.310Z,589.00
2023-04-08T03:39:28.315Z,590.00
2023-04-08T03:40:28.409Z,588.00
2023-04-08T03:41:28.339Z,587.00
2023-04-08T03:42:28.411Z,592.00
2023-04-08T03:43:28.379Z,594.00
2023-04-08T03:44:28.405Z,591.00
2023-04-08T03:45:28.427Z,591.00
2023-04-08T03:46:30.078Z,585.00
2023-04-08T03:47:28.511Z,591.00
2023-04-08T03:48:28.451Z,588.00
2023-04-08T03:49:28.482Z,589.00
2023-04-08T03:50:28.502Z,590.00
2023-04-08T03:51:28.509Z,589.00
2023-04-08T03:52:28.546Z,592.00
2023-04-08T03:53:28.516Z,592.00
2023-04-08T03:54:28.523Z,592.00
2023-04-08T03:55:28.555Z,594.00
2023-04-08T03:56:28.569Z,592.00
2023-04-08T03:57:28.589Z,594.00
2023-04-08T03:58:28.590Z,594.00
2023-04-08T03:59:28.612Z,592.00
2023-04-08T04:00:28.634Z,594.00
2023-04-08T04:01:28.705Z,595.00
2023-04-08T04:02:28.758Z,593.00
2023-04-08T04:03:28.824Z,590.00
2023-04-08T04:04:29.543Z,591.00
2023-04-08T04:05:28.678Z,601.00
2023-04-08T04:06:28.721Z,592.00
2023-04-08T04:07:28.702Z,590.00
2023-04-08T04:08:28.739Z,589.00
2023-04-08T04:09:28.723Z,593.00
2023-04-08T04:10:28.752Z,596.00
2023-04-08T04:11:28.772Z,593.00
2023-04-08T04:12:28.811Z,597.00
2023-04-08T04:13:28.805Z,595.00
2023-04-08T04:14:28.857Z,596.00
2023-04-08T04:15:28.886Z,598.00
2023-04-08T04:16:30.911Z,595.00
2023-04-08T04:17:29.003Z,599.00
2023-04-08T04:18:28.924Z,596.00
2023-04-08T04:19:28.831Z,594.00
2023-04-08T04:20:28.827Z,595.00
2023-04-08T04:21:28.842Z,596.00
2023-04-08T04:22:28.810Z,598.00
2023-04-08T04:23:28.794Z,595.00
2023-04-08T04:24:28.830Z,596.00
2023-04-08T04:25:28.828Z,597.00
2023-04-08T04:26:28.780Z,601.00
2023-04-08T04:27:28.765Z,600.00
2023-04-08T04:28:28.792Z,598.00
2023-04-08T04:29:28.767Z,597.00
2023-04-08T04:30:28.740Z,593.00
2023-04-08T04:31:28.796Z,598.00
2023-04-08T04:32:28.749Z,597.00
2023-04-08T04:33:28.738Z,598.00
2023-04-08T04:34:28.747Z,597.00
2023-04-08T04:35:28.792Z,599.00
2023-04-08T04:36:28.717Z,601.00
2023-04-08T04:37:28.701Z,601.00
2023-04-08T04:38:28.700Z,596.00
2023-04-08T04:39:28.715Z,596.00
2023-04-08T04:40:28.691Z,600.00
2023-04-08T04:41:28.681Z,596.00
2023-04-08T04:42:28.665Z,595.00
2023-04-08T04:43:28.671Z,600.00
2023-04-08T04:44:28.638Z,597.00
2023-04-08T04:45:28.649Z,598.00
2023-04-08T04:46:28.673Z,600.00
2023-04-08T04:47:29.474Z,598.00
2023-04-08T04:48:28.654Z,594.00
2023-04-08T04:49:28.637Z,593.00
2023-04-08T04:50:28.608Z,601.00
2023-04-08T04:51:28.637Z,596.00
2023-04-08T04:52:28.605Z,592.00
2023-04-08T04:53:28.605Z,601.00
2023-04-08T04:54:28.615Z,602.00
2023-04-08T04:55:28.594Z,602.00
2023-04-08T04:56:28.632Z,599.00
2023-04-08T04:57:28.589Z,598.00
2023-04-08T04:58:28.573Z,598.00
2023-04-08T04:59:28.569Z,597.00
2023-04-08T05:00:28.564Z,595.00
2023-04-08T05:01:28.582Z,600.00
2023-04-08T05:02:28.561Z,602.00
2023-04-08T05:03:28.630Z,595.00
2023-04-08T05:04:28.548Z,594.00
2023-04-08T05:05:28.665Z,598.00
2023-04-08T05:06:28.527Z,599.00
2023-04-08T05:07:28.498Z,598.00
2023-04-08T05:08:28.533Z,596.00
2023-04-08T05:09:28.512Z,594.00
2023-04-08T05:10:28.471Z,594.00
2023-04-08T05:11:28.457Z,597.00
2023-04-08T05:12:28.486Z,594.00
2023-04-08T05:13:28.468Z,600.00
2023-04-08T05:14:28.471Z,592.00
2023-04-08T05:15:28.437Z,592.00
2023-04-08T05:16:28.629Z,598.00
2023-04-08T05:17:28.488Z,599.00
2023-04-08T05:18:28.448Z,594.00
2023-04-08T05:19:28.409Z,592.00
2023-04-08T05:20:28.398Z,592.00
2023-04-08T05:21:28.381Z,597.00
2023-04-08T05:22:28.399Z,593.00
2023-04-08T05:23:28.406Z,596.00
2023-04-08T05:24:28.382Z,597.00
2023-04-08T05:25:28.419Z,592.00
2023-04-08T05:26:28.402Z,597.00
2023-04-08T05:27:28.391Z,599.00
2023-04-08T05:28:28.362Z,590.00
2023-04-08T05:29:28.341Z,590.00
2023-04-08T05:30:28.353Z,594.00
2023-04-08T05:31:28.401Z,593.00
2023-04-08T05:32:28.394Z,596.00
2023-04-08T05:33:28.366Z,595.00
2023-04-08T05:34:28.354Z,599.00
2023-04-08T05:35:28.427Z,599.00
2023-04-08T05:36:28.325Z,595.00
2023-04-08T05:37:28.317Z,597.00
2023-04-08T05:38:28.307Z,602.00
2023-04-08T05:39:28.314Z,596.00
2023-04-08T05:40:28.310Z,595.00
2023-04-08T05:41:28.319Z,598.00
2023-04-08T05:42:28.334Z,595.00
2023-04-08T05:43:28.362Z,596.00
2023-04-08T05:44:28.376Z,597.00
2023-04-08T05:45:28.416Z,596.00
2023-04-08T05:46:28.437Z,594.00
2023-04-08T05:47:28.430Z,599.00
2023-04-08T05:48:28.477Z,601.00
2023-04-08T05:49:28.507Z,600.00
2023-04-08T05:50:28.530Z,599.00
2023-04-08T05:51:28.575Z,599.00
2023-04-08T05:52:28.554Z,595.00
2023-04-08T05:53:28.626Z,593.00
2023-04-08T05:54:28.610Z,596.00
2023-04-08T05:55:28.643Z,592.00
2023-04-08T05:56:28.639Z,596.00
2023-04-08T05:57:28.707Z,597.00
2023-04-08T05:58:28.717Z,593.00
2023-04-08T05:59:28.728Z,594.00
2023-04-08T06:00:28.744Z,592.00
2023-04-08T06:01:28.830Z,596.00
2023-04-08T06:02:28.834Z,599.00
2023-04-08T06:03:28.914Z,598.00
2023-04-08T06:04:28.872Z,595.00
2023-04-08T06:05:28.835Z,595.00
2023-04-08T06:06:28.837Z,592.00
2023-04-08T06:07:28.887Z,597.00
2023-04-08T06:08:28.894Z,597.00
2023-04-08T06:09:28.942Z,593.00
2023-04-08T06:10:28.937Z,596.00
2023-04-08T06:11:28.945Z,598.00
2023-04-08T06:12:28.971Z,596.00
2023-04-08T06:13:29.023Z,597.00
2023-04-08T06:14:29.036Z,595.00
2023-04-08T06:15:29.052Z,600.00
2023-04-08T06:16:29.090Z,597.00
2023-04-08T06:17:29.112Z,600.00
2023-04-08T06:18:29.073Z,594.00
2023-04-08T06:19:29.107Z,590.00
2023-04-08T06:20:29.160Z,598.00
2023-04-08T06:21:29.149Z,598.00
2023-04-08T06:22:29.157Z,600.00
2023-04-08T06:23:29.144Z,597.00
2023-04-08T06:24:29.213Z,598.00
2023-04-08T06:25:29.180Z,600.00
2023-04-08T06:26:29.206Z,598.00
2023-04-08T06:27:29.219Z,597.00
2023-04-08T06:28:29.290Z,600.00
2023-04-08T06:29:29.272Z,599.00
2023-04-08T06:30:29.276Z,595.00
2023-04-08T06:31:29.348Z,600.00
2023-04-08T06:32:29.365Z,601.00
2023-04-08T06:33:29.324Z,600.00
2023-04-08T06:34:29.343Z,602.00
2023-04-08T06:35:29.636Z,601.00
2023-04-08T06:36:29.378Z,602.00
2023-04-08T06:37:29.429Z,598.00
2023-04-08T06:38:29.436Z,597.00
2023-04-08T06:39:29.404Z,601.00
2023-04-08T06:40:29.415Z,598.00
2023-04-08T06:41:29.439Z,599.00
2023-04-08T06:42:29.446Z,604.00
2023-04-08T06:43:29.477Z,600.00
2023-04-08T06:44:29.493Z,600.00
2023-04-08T06:45:29.516Z,598.00
2023-04-08T06:46:29.588Z,595.00
2023-04-08T06:47:29.578Z,600.00
2023-04-08T06:48:29.564Z,600.00
2023-04-08T06:49:29.568Z,595.00
2023-04-08T06:50:29.578Z,599.00
2023-04-08T06:51:29.590Z,600.00
2023-04-08T06:52:29.605Z,600.00
2023-04-08T06:53:29.642Z,595.00
2023-04-08T06:54:29.639Z,597.00
2023-04-08T06:55:29.646Z,600.00
2023-04-08T06:56:29.694Z,598.00
2023-04-08T06:57:29.669Z,595.00
2023-04-08T06:58:29.711Z,599.00
2023-04-08T06:59:29.720Z,601.00
2023-04-08T07:00:29.688Z,597.00
2023-04-08T07:01:29.816Z,595.00
2023-04-08T07:02:29.809Z,596.00
2023-04-08T07:03:29.782Z,600.00
2023-04-08T07:04:29.744Z,602.00
2023-04-08T07:05:29.742Z,600.00
2023-04-08T07:06:29.756Z,598.00
2023-04-08T07:07:29.790Z,597.00
2023-04-08T07:08:29.818Z,595.00
2023-04-08T07:09:29.831Z,598.00
2023-04-08T07:10:29.832Z,597.00
2023-04-08T07:11:29.823Z,596.00
2023-04-08T07:12:29.846Z,600.00
2023-04-08T07:13:29.859Z,595.00
2023-04-08T07:14:29.833Z,596.00
2023-04-08T07:15:29.884Z,592.00
2023-04-08T07:16:29.931Z,598.00
2023-04-08T07:17:29.965Z,597.00
2023-04-08T07:18:29.913Z,595.00
2023-04-08T07:19:29.905Z,593.00
2023-04-08T07:20:32.104Z,596.00
2023-04-08T07:21:29.926Z,597.00
2023-04-08T07:22:29.966Z,595.00
2023-04-08T07:23:30.001Z,595.00
2023-04-08T07:24:29.952Z,597.00
2023-04-08T07:25:29.953Z,595.00
2023-04-08T07:26:29.994Z,598.00
2023-04-08T07:27:29.997Z,596.00
2023-04-08T07:28:30.006Z,596.00
2023-04-08T07:29:30.023Z,595.00
2023-04-08T07:30:30.012Z,595.00
2023-04-08T07:31:30.059Z,598.00
2023-04-08T07:32:30.109Z,595.00
2023-04-08T07:33:30.089Z,585.00
2023-04-08T07:34:30.081Z,597.00
2023-04-08T07:35:30.132Z,591.00
2023-04-08T07:36:30.120Z,596.00
2023-04-08T07:37:30.145Z,593.00
2023-04-08T07:38:30.142Z,596.00
2023-04-08T07:39:30.140Z,595.00
2023-04-08T07:40:30.251Z,599.00
2023-04-08T07:41:30.173Z,593.00
2023-04-08T07:42:30.196Z,591.00
2023-04-08T07:43:30.208Z,594.00
2023-04-08T07:44:30.224Z,593.00
2023-04-08T07:45:30.227Z,588.00
2023-04-08T07:46:30.270Z,586.00
2023-04-08T07:47:30.292Z,586.00
2023-04-08T07:48:30.244Z,588.00
2023-04-08T07:49:30.240Z,589.00
2023-04-08T07:50:30.294Z,591.00
2023-04-08T07:51:30.284Z,589.00
2023-04-08T07:52:30.295Z,585.00
2023-04-08T07:53:30.305Z,590.00
2023-04-08T07:54:30.322Z,591.00
2023-04-08T07:55:30.360Z,588.00
2023-04-08T07:56:30.350Z,590.00
2023-04-08T07:57:30.387Z,589.00
2023-04-08T07:58:30.375Z,590.00
2023-04-08T07:59:30.402Z,587.00
2023-04-08T08:00:30.412Z,583.00
2023-04-08T08:01:30.464Z,587.00
2023-04-08T08:02:30.496Z,588.00
2023-04-08T08:03:33.291Z,585.00
2023-04-08T08:04:30.602Z,591.00
2023-04-08T08:05:30.444Z,587.00
2023-04-08T08:06:30.431Z,589.00
2023-04-08T08:07:30.427Z,586.00
2023-04-08T08:08:30.437Z,587.00
2023-04-08T08:09:32.097Z,590.00
2023-04-08T08:10:30.382Z,595.00
2023-04-08T08:11:30.397Z,589.00
2023-04-08T08:12:30.387Z,587.00
2023-04-08T08:13:30.388Z,587.00
2023-04-08T08:14:30.388Z,587.00
2023-04-08T08:15:30.368Z,588.00
2023-04-08T08:16:30.452Z,579.00
2023-04-08T08:17:30.400Z,591.00
2023-04-08T08:18:30.350Z,586.00
2023-04-08T08:19:30.375Z,592.00
2023-04-08T08:20:30.300Z,590.00
2023-04-08T08:21:30.315Z,587.00
2023-04-08T08:22:30.330Z,587.00
2023-04-08T08:23:30.296Z,586.00
2023-04-08T08:24:30.279Z,584.00
2023-04-08T08:25:30.317Z,583.00
2023-04-08T08:26:30.280Z,587.00
2023-04-08T08:27:30.293Z,586.00
2023-04-08T08:28:30.274Z,590.00
2023-04-08T08:29:30.258Z,588.00
2023-04-08T08:30:30.797Z,588.00
2023-04-08T08:31:30.426Z,589.00
2023-04-08T08:32:30.292Z,585.00
2023-04-08T08:33:30.228Z,582.00
2023-04-08T08:34:30.208Z,589.00
2023-04-08T08:35:30.258Z,589.00
2023-04-08T08:36:30.749Z,590.00
2023-04-08T08:37:30.194Z,588.00
2023-04-08T08:38:30.240Z,587.00
2023-04-08T08:39:30.221Z,586.00
2023-04-08T08:40:30.215Z,585.00
2023-04-08T08:41:30.164Z,586.00
2023-04-08T08:42:31.121Z,586.00
2023-04-08T08:43:30.224Z,585.00
2023-04-08T08:44:30.160Z,586.00
2023-04-08T08:45:30.182Z,586.00
2023-04-08T08:46:30.211Z,582.00
2023-04-08T08:47:30.160Z,581.00
2023-04-08T08:48:30.194Z,581.00
2023-04-08T08:49:30.128Z,582.00
2023-04-08T08:50:30.143Z,583.00
2023-04-08T08:51:30.128Z,583.00
2023-04-08T08:52:30.115Z,584.00
2023-04-08T08:53:30.085Z,584.00
2023-04-08T08:54:30.121Z,582.00
2023-04-08T08:55:50.380Z,579.00
2023-04-08T08:56:31.081Z,579.00
2023-04-08T08:57:30.105Z,580.00
2023-04-08T08:58:30.098Z,580.00
2023-04-08T08:59:30.059Z,584.00
2023-04-08T09:00:30.657Z,587.00
2023-04-08T09:01:30.097Z,585.00
2023-04-08T09:02:30.255Z,585.00
2023-04-08T09:03:30.439Z,584.00
2023-04-08T09:04:30.095Z,585.00
2023-04-08T09:05:30.235Z,584.00
2023-04-08T09:06:30.008Z,581.00
2023-04-08T09:07:30.005Z,585.00
2023-04-08T09:08:30.034Z,583.00
2023-04-08T09:09:30.027Z,585.00
2023-04-08T09:10:30.030Z,583.00
2023-04-08T09:11:30.017Z,586.00
2023-04-08T09:12:30.005Z,585.00
2023-04-08T09:13:29.982Z,586.00
2023-04-08T09:14:29.989Z,584.00
2023-04-08T09:15:30.055Z,582.00
2023-04-08T09:16:30.069Z,572.00
2023-04-08T09:17:29.992Z,585.00
2023-04-08T09:18:29.945Z,593.00
2023-04-08T09:19:29.932Z,587.00
2023-04-08T09:20:29.918Z,585.00
2023-04-08T09:21:29.913Z,588.00
2023-04-08T09:22:29.923Z,589.00
2023-04-08T09:23:29.924Z,583.00
2023-04-08T09:24:29.950Z,580.00
2023-04-08T09:25:29.910Z,586.00
2023-04-08T09:26:29.907Z,584.00
2023-04-08T09:27:29.931Z,578.00
2023-04-08T09:28:29.914Z,574.00
2023-04-08T09:29:33.134Z,582.00
2023-04-08T09:30:29.872Z,582.00
2023-04-08T09:31:29.935Z,583.00
2023-04-08T09:32:29.916Z,580.00
2023-04-08T09:33:29.866Z,580.00
2023-04-08T09:34:29.850Z,587.00
2023-04-08T09:35:29.895Z,589.00
2023-04-08T09:36:29.847Z,584.00
2023-04-08T09:37:29.813Z,563.00
2023-04-08T09:38:29.782Z,583.00
2023-04-08T09:39:29.809Z,591.00
2023-04-08T09:40:29.798Z,595.00
2023-04-08T09:41:29.810Z,582.00
2023-04-08T09:42:29.793Z,574.00
2023-04-08T09:43:29.819Z,591.00
2023-04-08T09:44:29.759Z,565.00
2023-04-08T09:45:29.790Z,578.00
2023-04-08T09:46:29.748Z,583.00
2023-04-08T09:47:29.767Z,576.00
2023-04-08T09:48:29.809Z,575.00
2023-04-08T09:49:29.778Z,585.00
2023-04-08T09:50:29.721Z,582.00
2023-04-08T09:51:29.698Z,579.00
2023-04-08T09:52:30.607Z,585.00
2023-04-08T09:53:29.717Z,583.00
2023-04-08T09:54:29.667Z,580.00
2023-04-08T09:55:29.682Z,578.00
2023-04-08T09:56:29.652Z,585.00
2023-04-08T09:57:29.680Z,585.00
2023-04-08T09:58:29.663Z,586.00
2023-04-08T09:59:29.679Z,577.00
2023-04-08T10:00:29.639Z,575.00
2023-04-08T10:01:29.839Z,586.00
2023-04-08T10:02:29.805Z,585.00
2023-04-08T10:03:29.842Z,583.00
2023-04-08T10:04:29.837Z,582.00
2023-04-08T10:05:29.652Z,584.00
2023-04-08T10:06:29.664Z,575.00
2023-04-08T10:07:29.676Z,588.00
2023-04-08T10:08:29.672Z,586.00
2023-04-08T10:09:29.714Z,586.00
2023-04-08T10:10:29.707Z,577.00
2023-04-08T10:11:29.698Z,583.00
2023-04-08T10:12:29.726Z,582.00
2023-04-08T10:13:29.796Z,593.00
2023-04-08T10:14:29.820Z,593.00
2023-04-08T10:15:29.831Z,598.00
2023-04-08T10:16:29.897Z,591.00
2023-04-08T10:17:29.893Z,585.00
2023-04-08T10:18:29.894Z,578.00
2023-04-08T10:19:29.907Z,591.00
2023-04-08T10:20:30.030Z,588.00
2023-04-08T10:21:29.963Z,584.00
2023-04-08T10:22:30.047Z,585.00
2023-04-08T10:23:30.008Z,580.00
2023-04-08T10:24:30.037Z,589.00
2023-04-08T10:25:30.057Z,590.00
2023-04-08T10:26:30.167Z,592.00
2023-04-08T10:27:30.140Z,585.00
2023-04-08T10:28:30.150Z,585.00
2023-04-08T10:29:30.153Z,586.00
2023-04-08T10:30:30.180Z,578.00
2023-04-08T10:31:30.221Z,594.00
2023-04-08T10:32:30.292Z,596.00
2023-04-08T10:33:30.292Z,591.00
2023-04-08T10:34:30.285Z,589.00
2023-04-08T10:35:30.361Z,580.00
2023-04-08T10:36:30.373Z,583.00
2023-04-08T10:37:30.362Z,584.00
2023-04-08T10:38:30.418Z,575.00
2023-04-08T10:39:30.440Z,588.00
2023-04-08T10:40:30.440Z,583.00
2023-04-08T10:41:30.466Z,593.00
2023-04-08T10:42:30.494Z,591.00
2023-04-08T10:43:30.492Z,582.00
2023-04-08T10:44:30.536Z,585.00
2023-04-08T10:45:30.560Z,596.00
2023-04-08T10:46:30.655Z,583.00
2023-04-08T10:47:30.648Z,587.00
2023-04-08T10:48:30.685Z,598.00
2023-04-08T10:49:30.705Z,588.00
2023-04-08T10:50:30.735Z,594.00
2023-04-08T10:51:33.063Z,594.00
2023-04-08T10:52:30.755Z,586.00
2023-04-08T10:53:30.785Z,597.00
2023-04-08T10:54:30.755Z,589.00
2023-04-08T10:55:30.742Z,596.00
2023-04-08T10:56:30.711Z,590.00
2023-04-08T10:57:30.739Z,588.00
2023-04-08T10:58:30.755Z,591.00
2023-04-08T10:59:30.717Z,595.00
2023-04-08T11:00:30.700Z,576.00
2023-04-08T11:01:30.815Z,580.00
2023-04-08T11:02:30.797Z,589.00
2023-04-08T11:03:30.788Z,580.00
2023-04-08T11:04:30.837Z,584.00
2023-04-08T11:05:30.670Z,583.00
2023-04-08T11:06:30.675Z,589.00
2023-04-08T11:07:30.638Z,588.00
2023-04-08T11:08:30.654Z,579.00
2023-04-08T11:09:30.641Z,584.00
2023-04-08T11:10:30.644Z,586.00
2023-04-08T11:11:30.615Z,580.00
2023-04-08T11:12:30.628Z,576.00
2023-04-08T11:13:30.604Z,585.00
2023-04-08T11:14:30.599Z,578.00
2023-04-08T11:15:30.633Z,568.00
2023-04-08T11:16:30.712Z,582.00
2023-04-08T11:17:30.613Z,576.00
2023-04-08T11:18:30.596Z,574.00
2023-04-08T11:19:30.599Z,567.00
2023-04-08T11:20:30.569Z,573.00
2023-04-08T11:21:30.632Z,579.00
2023-04-08T11:22:30.557Z,572.00
2023-04-08T11:23:30.539Z,560.00
2023-04-08T11:24:30.535Z,575.00
2023-04-08T11:25:30.525Z,562.00
2023-04-08T11:26:30.521Z,573.00
2023-04-08T11:27:30.519Z,579.00
2023-04-08T11:28:30.512Z,579.00
2023-04-08T11:29:30.569Z,576.00
2023-04-08T11:30:30.515Z,580.00
2023-04-08T11:31:30.558Z,588.00
2023-04-08T11:32:30.582Z,580.00
2023-04-08T11:33:30.468Z,576.00
2023-04-08T11:34:30.468Z,578.00
2023-04-08T11:35:30.519Z,573.00
2023-04-08T11:36:30.441Z,574.00
2023-04-08T11:37:30.449Z,573.00
2023-04-08T11:38:30.443Z,568.00
2023-04-08T11:39:30.430Z,556.00
2023-04-08T11:40:30.447Z,558.00
2023-04-08T11:41:30.405Z,570.00
2023-04-08T11:42:30.464Z,567.00
2023-04-08T11:43:30.386Z,563.00
2023-04-08T11:44:30.417Z,568.00
2023-04-08T11:45:30.393Z,564.00
2023-04-08T11:46:30.448Z,570.00
2023-04-08T11:47:30.422Z,579.00
2023-04-08T11:48:30.437Z,569.00
2023-04-08T11:49:30.381Z,574.00
2023-04-08T11:50:30.356Z,569.00
2023-04-08T11:51:30.362Z,565.00
2023-04-08T11:52:30.343Z,577.00
2023-04-08T11:53:30.351Z,560.00
2023-04-08T11:54:31.144Z,570.00
2023-04-08T11:55:30.346Z,568.00
2023-04-08T11:56:30.387Z,564.00
2023-04-08T11:57:30.446Z,562.00
2023-04-08T11:58:30.450Z,563.00
2023-04-08T11:59:30.522Z,561.00
2023-04-08T12:00:30.550Z,577.00
2023-04-08T12:01:30.627Z,571.00
2023-04-08T12:02:30.706Z,562.00
2023-04-08T12:03:30.856Z,569.00
2023-04-08T12:04:30.819Z,569.00
2023-04-08T12:05:30.827Z,579.00
2023-04-08T12:06:30.890Z,564.00
2023-04-08T12:07:30.913Z,574.00
2023-04-08T12:08:30.986Z,571.00
2023-04-08T12:09:31.011Z,565.00
2023-04-08T12:10:31.087Z,572.00
2023-04-08T12:11:31.124Z,583.00
2023-04-08T12:12:31.161Z,579.00
2023-04-08T12:13:31.173Z,574.00
2023-04-08T12:14:31.196Z,574.00
2023-04-08T12:15:31.237Z,573.00
2023-04-08T12:16:31.318Z,577.00
2023-04-08T12:17:31.321Z,574.00
2023-04-08T12:18:31.310Z,583.00
2023-04-08T12:19:33.504Z,570.00
2023-04-08T12:20:31.344Z,574.00
2023-04-08T12:21:31.375Z,577.00
2023-04-08T12:22:31.312Z,560.00
2023-04-08T12:23:31.291Z,580.00
2023-04-08T12:24:31.295Z,562.00
2023-04-08T12:25:31.319Z,581.00
2023-04-08T12:26:31.314Z,581.00
2023-04-08T12:27:31.298Z,575.00
2023-04-08T12:28:31.258Z,579.00